Logo AVAMET
Benvolgut visitant, si us plau, ingressa Recuperar contrasenya
AVAMET paisatges
Union Alcoyana

Inforatge Riola

Dades diàries. Acumulats / Últims 30 dies disponibles

Data Temperatura (°C) Humitat rel. (%) Pressió rel. (hPa) Vent (km/h) Precipitació
Mínima Mitjana Màxima Amplitud
tèrmica
Mínima Mitjana Màxima Mínima Mitjana Màxima Predom. Mitjana Ràfega
màxima
Total
(mm)
Índex-n
Mínima Mitjana Màxima Mínima Mitjana Màxima n
0 a 1
P0 max
mm 5'
Dades mensuals acumulades fins l'últim dia disponible
04/2021 7,7 10,2 12,0 13,9 13,3 18,4 28,3 20,6 19 78 96 1.009 1.018 1.027   4,7 45,1 21,8
Dades anuals acumulades fins l'últim dia disponible
2021 0,3 9,0 17,1 12,8 7,1 17,4 28,3 28,0 19 73 97 1.001 1.019 1.037   6,0 86,9 165,4
Últims 30 dies disponibles
16-04-2021 7,7     11,9     17,1 9,4 51 79 93 1.016 1.018 1.020 WNW 5,1 30,6 4,0
15-04-2021 11,4     13,6     14,7 3,3 77 83 94 1.017 1.018 1.020 ENE 4,2 25,7 1,0
14-04-2021 10,1     13,8     17,1 7,0 67 81 92 1.018 1.020 1.023 ESE 4,8 29,0 0,0
13-04-2021 12,0     14,4     18,1 6,1 61 79 91 1.022 1.024 1.026 ESE 6,9 27,4 0,0
12-04-2021 11,1     14,0     16,5 5,4 52 77 96 1.020 1.024 1.026 ESE 6,3 35,4 0,2
11-04-2021 10,3     16,6     24,1 13,8 47 77 96 1.012 1.014 1.021 W 4,7 30,6 1,2
10-04-2021 11,4     12,8     15,1 3,7 82 91 96 1.013 1.016 1.020 ESE 2,9 19,3 0,8
09-04-2021 9,1     11,0     13,3 4,2 79 89 95 1.020 1.022 1.024 WNW 2,1 16,1 0,8
08-04-2021 10,4     12,4     15,4 5,0 54 76 95 1.023 1.025 1.027 ESE 4,7 27,4 0,0
07-04-2021 10,3     11,9     14,1 3,8 59 84 94 1.013 1.020 1.026 ENE 5,0 30,6 2,0
06-04-2021 10,6     16,7     28,3 17,7 19 68 89 1.009 1.012 1.016 WNW 6,4 45,1 0,0
05-04-2021 8,3     14,4     20,3 12,0 54 78 94 1.015 1.018 1.020 ESE 5,3 29,0 0,0
04-04-2021 10,4     13,8     16,8 6,4 65 82 95 1.012 1.016 1.019 ESE 4,0 20,9 11,8 0,37 2,10
03-04-2021 11,1     16,6     22,3 11,2 38 64 87 1.010 1.012 1.014 ESE 4,3 20,9 0,0
02-04-2021 10,2     15,5     22,3 12,1 45 64 83 1.012 1.014 1.018 WNW 5,5 24,1 0,0
01-04-2021 8,6     13,6     18,6 10,0 53 77 93 1.017 1.020 1.023 WNW 3,2 22,5 0,0
31-03-2021 9,6     14,1     18,4 8,8 50 78 93 1.022 1.025 1.028 ENE 2,9 20,9 0,0
30-03-2021 12,5     14,9     18,8 6,3 63 82 93 1.027 1.029 1.031 ENE 2,9 19,3 0,0
29-03-2021 9,9     13,5     17,1 7,2 68 86 94 1.030 1.031 1.032 ENE 3,5 24,1 0,0
28-03-2021 9,1     13,5     17,6 8,5 52 79 93 1.029 1.031 1.032 ENE 2,6 24,1 0,0
27-03-2021 11,4     14,4     17,6 6,2 70 84 94 1.022 1.027 1.030 NE 4,2 32,2 0,0
26-03-2021 8,9     13,5     18,6 9,7 68 87 96 1.019 1.022 1.024 ESE 3,5 25,7 0,0
25-03-2021 9,2     13,6     18,9 9,7 66 86 97 1.022 1.024 1.025 ESE 3,9 24,1 0,2
24-03-2021 7,2     12,8     20,0 12,8 53 82 94 1.023 1.025 1.027 WNW 5,3 32,2 0,0
23-03-2021 5,8     12,7     18,8 13,0 43 72 91 1.020 1.022 1.024 WNW 4,2 27,4 0,0
22-03-2021 7,8     12,6     19,4 11,6 32 57 85 1.016 1.018 1.020 W 6,1 27,4 0,0
21-03-2021 5,4     11,2     19,5 14,1 26 63 91 1.016 1.019 1.022 WNW 4,3 24,1 0,4
20-03-2021 4,1     8,8     13,9 9,8 41 71 94 1.014 1.017 1.021 WNW 5,6 40,2 2,2
19-03-2021 6,3     9,1     13,2 6,9 52 78 93 1.010 1.014 1.018 WNW 4,0 25,7 4,8 0,16 0,40
18-03-2021 6,6     9,7     14,2 7,6 55 80 93 1.017 1.020 1.022 WNW 5,8 25,7 19,8 0,18 0,70
Últims 13 mesos disponibles
03/2021 4,1 8,8 13,2 13,0 12,4 17,6 25,4 21,3 54 78 94 1.014 1.023 1.031 WNW 4,7 40,2 46,6
02/2021 5,6 10,5 15,9 13,9 14,4 18,0 22,8 17,2 51 74 90 1.003 1.018 1.035 WNW 6,3 57,9 1,8
01/2021 0,3 7,4 17,1 11,2 7,1 16,0 26,2 25,9 38 64 93 1.007 1.017 1.028 WNW 7,8 86,9 95,2
12/2020 3,9 8,5 14,9 12,4 13,0 17,3 22,7 18,8 43 65 88 998 1.015 1.028 WNW 7,4 56,3 9,2
11/2020 6,7 11,8 16,7 15,3 14,9 19,9 24,2 17,5 0 78 94 0 946 1.030 WNW 4,3 53,1 523,2
10/2020 9,1 13,8 18,4 18,7 20,4 24,5 32,7 23,6 0 39 85 0 677 1.022 WNW 5,9 62,8 5,6
09/2020 12,4 18,6 21,8 23,2 24,3 28,3 31,3 18,9 39 68 83 1.011 1.017 1.023 WNW 5,6 43,5 29,2
08/2020 15,3 22,3 25,3 26,2 25,8 31,4 35,6 20,3 51 72 85 1.004 1.014 1.018 WNW 4,1 38,6 3,0
07/2020 19,1 21,9 23,7 26,0 27,4 30,3 33,8 14,7 59 77 86 1.011 1.016 1.020 SSO 4,8 35,4 14,0
06/2020 15,1 18,9 22,6 23,4 21,4 28,4 33,3 18,2 37 71 84 1.005 1.014 1.021 WNW 5,8 38,6 37,6
05/2020 12,9 16,1 18,8 21,0 19,7 26,1 33,9 21,0 51 70 81 1.006 1.015 1.026 SW 4,8 43,5 21,6
04/2020 8,5 12,5 17,8 16,0 15,9 20,3 27,3 18,8 50 79 93 1.006 1.016 1.026 SW 4,2 38,6 62,6
03/2020 5,4 10,5 16,3 14,3 10,8 18,7 24,3 18,9 44 73 92 1.007 1.018 1.027 SW 5,6 74,0 101,0
Tots els anys disponibles
2020 3,1 14,2 25,3 18,4 10,4 23,4 35,6 32,5 0 70 94 0 985 1.033 WNW 5,1 74,0 1.038,6
2019 1,8 14,0 25,8 18,6 13,2 23,7 41,7 39,9 0 69 95 0 1.014 1.034 S 5,0 72,4 442,0
2018 1,4 14,2 26,9 18,5 8,5 23,3 37,1 35,7 39 71 94 994 1.017 1.036 SSO 4,6 61,1 718,2
Temperatura (°C)
Humitat relativa (%)
Velocitat del vent i ràfega màxima (km/h)
Direcció del vent (°)
Pressió (hPa)
Precipitació (mm)
Nota sobre les dades: s'avisa a l'usuari de la provisionalitat i no oficialitat d'aquestes dades
Logo AVAMET blanc
Web allotjada a Sollutia
Llicència de Creative CommonsLa web d'AVAMET i els seus continguts estan subjectes a una llicència de
Reconeixement - No Comercial - Compartir igual
Avís legal - Política de privacitat - Política de cookies
NOVES ESTACIONS: Vilafranca - la Pobla del Bellestar (Ajuntament/Soci), la Serratella (Ajuntament/Soci),  Xixona - Cantal del Tormo (Soci),  Castelló de la Plana - Edifici Capitol (Soci),  Algimia de Almonacid (Soci),  Ontinyent - Ombría dels Frares (Soci), Confrides - Font de Fuster - - -